Time;durP1;ratioP1;P1;durP2;ratioP2;P2;SDS_P1;SDS_P2;PMS_P1;PMS_P2;Temp;Humidity;BMP_temperature;BMP_pressure;BME280_temperature;BME280_humidity;BME280_pressure;Samples;Min_cycle;Max_cycle;Signal;HPM_P1;HPM_P2
2023/09/28 00:01:17;;;;;;;6.57;4.30;;;;;;;24.05;48.96;101290.81;5025179;28;22026;-67
2023/09/28 00:03:43;;;;;;;4.20;3.63;;;;;;;24.04;49.00;101269.72;5074006;28;20135;-67
2023/09/28 00:06:09;;;;;;;5.43;4.50;;;;;;;24.01;49.29;101276.25;5023648;28;20787;-66
2023/09/28 00:08:34;;;;;;;4.90;4.00;;;;;;;24.03;49.01;101271.56;5075358;28;20040;-66
2023/09/28 00:11:00;;;;;;;5.05;4.55;;;;;;;24.03;48.95;101266.25;5018487;28;23310;-67
2023/09/28 00:13:27;;;;;;;4.60;3.78;;;;;;;24.04;49.12;101262.56;5060815;28;20048;-69
2023/09/28 00:15:53;;;;;;;5.63;4.68;;;;;;;24.03;49.05;101265.41;5055479;28;20051;-69
2023/09/28 00:18:19;;;;;;;4.43;3.90;;;;;;;24.01;49.14;101270.94;5075040;28;20485;-69
2023/09/28 00:21:02;;;;;;;5.13;4.63;;;;;;;24.03;49.04;101274.22;5058007;28;20039;-69
2023/09/28 00:23:27;;;;;;;5.68;4.18;;;;;;;24.04;48.94;101261.72;5075287;28;20039;-69
2023/09/28 00:26:02;;;;;;;4.53;3.85;;;;;;;23.95;49.16;101250.44;5061106;28;20032;-69
2023/09/28 00:28:28;;;;;;;4.40;4.00;;;;;;;24.04;49.01;101259.06;5063117;28;20028;-67
2023/09/28 00:31:05;;;;;;;5.85;4.50;;;;;;;24.06;48.87;101262.38;5038697;28;20440;-68
2023/09/28 00:33:31;;;;;;;5.05;4.00;;;;;;;24.01;48.93;101267.47;5075464;28;20048;-69
2023/09/28 00:35:58;;;;;;;5.28;4.40;;;;;;;24.02;49.16;101277.91;5049715;28;20046;-69
2023/09/28 00:38:29;;;;;;;5.10;3.95;;;;;;;24.03;48.84;101282.19;5060099;28;20081;-68
2023/09/28 00:40:55;;;;;;;5.22;4.00;;;;;;;24.04;48.89;101273.19;5058438;28;20078;-68
2023/09/28 00:43:27;;;;;;;5.13;3.88;;;;;;;24.04;48.87;101277.69;5072366;28;20047;-68
2023/09/28 00:45:52;;;;;;;4.97;4.00;;;;;;;24.03;48.79;101282.19;5015710;28;20421;-67
2023/09/28 00:48:19;;;;;;;4.85;4.00;;;;;;;24.05;48.82;101287.31;5075963;28;20032;-67
2023/09/28 00:50:45;;;;;;;5.00;3.97;;;;;;;24.06;49.07;101281.84;5021816;28;20414;-67
2023/09/28 00:53:11;;;;;;;5.47;4.43;;;;;;;24.03;48.96;101279.53;5076282;28;20101;-67
2023/09/28 00:55:39;;;;;;;4.63;3.88;;;;;;;24.00;48.88;101279.94;5023025;28;20056;-67
2023/09/28 00:58:05;;;;;;;4.90;4.25;;;;;;;24.03;48.95;101281.38;5065821;28;20060;-66
2023/09/28 01:00:34;;;;;;;4.97;3.95;;;;;;;24.07;48.84;101285.31;5079514;28;20025;-66
2023/09/28 01:03:02;;;;;;;4.90;4.18;;;;;;;24.03;48.79;101289.34;5018662;28;21036;-67
2023/09/28 01:05:31;;;;;;;4.18;3.78;;;;;;;24.02;48.82;101279.75;5073798;28;20051;-67
2023/09/28 01:08:14;;;;;;;4.22;3.70;;;;;;;24.07;48.86;101280.00;5054344;28;20072;-67
2023/09/28 01:10:40;;;;;;;4.18;3.78;;;;;;;24.05;48.85;101277.50;5075190;28;20137;-67
2023/09/28 01:13:12;;;;;;;5.22;3.95;;;;;;;24.06;48.85;101276.50;5019489;28;20664;-67
2023/09/28 01:15:39;;;;;;;4.82;3.88;;;;;;;24.03;48.79;101274.22;5078970;28;20063;-67
2023/09/28 01:18:09;;;;;;;4.28;3.88;;;;;;;24.07;48.74;101277.34;5048553;28;20051;-66
2023/09/28 01:20:37;;;;;;;4.10;3.70;;;;;;;24.04;48.67;101275.84;5080830;28;20028;-67
2023/09/28 01:23:04;;;;;;;4.57;4.00;;;;;;;24.06;48.79;101270.38;5074063;28;20044;-67
2023/09/28 01:25:30;;;;;;;5.10;4.18;;;;;;;24.07;48.72;101272.84;5080520;28;20048;-67
2023/09/28 01:28:00;;;;;;;5.03;3.88;;;;;;;24.08;48.75;101273.66;5090002;27;20040;-66
2023/09/28 01:30:27;;;;;;;5.25;4.40;;;;;;;24.08;48.84;101278.97;5057782;28;20028;-67
2023/09/28 01:32:59;;;;;;;5.00;4.30;;;;;;;24.07;48.71;101278.16;5033905;28;20149;-67
2023/09/28 01:35:26;;;;;;;4.55;4.13;;;;;;;24.06;48.76;101284.50;5076878;28;20031;-67
2023/09/28 01:38:14;;;;;;;4.88;3.90;;;;;;;24.04;48.94;101272.38;5066276;28;20055;-67
2023/09/28 01:40:41;;;;;;;5.45;4.15;;;;;;;24.07;48.84;101282.66;5079374;28;20032;-67
2023/09/28 01:43:07;;;;;;;4.47;3.92;;;;;;;24.04;48.65;101283.84;5020976;28;21471;-67
2023/09/28 01:45:33;;;;;;;4.63;3.97;;;;;;;24.04;48.81;101278.53;5077329;28;20044;-67
2023/09/28 01:47:59;;;;;;;4.75;4.15;;;;;;;24.06;48.79;101284.50;5061012;28;20130;-67
2023/09/28 01:50:25;;;;;;;5.38;4.18;;;;;;;24.06;48.66;101281.00;5079217;28;20044;-67
2023/09/28 01:52:58;;;;;;;5.10;4.20;;;;;;;24.06;48.74;101281.84;5038162;28;20097;-68
2023/09/28 01:55:24;;;;;;;4.57;3.78;;;;;;;24.08;48.61;101282.44;5076121;28;21840;-67
2023/09/28 01:57:53;;;;;;;5.35;3.80;;;;;;;24.06;48.67;101273.84;5083853;28;20037;-67
2023/09/28 02:00:25;;;;;;;5.28;4.00;;;;;;;24.06;48.86;101279.16;5038519;28;20035;-68
2023/09/28 02:02:56;;;;;;;4.97;4.15;;;;;;;24.04;48.76;101281.19;5041102;28;20036;-68
2023/09/28 02:05:22;;;;;;;5.28;4.35;;;;;;;24.05;48.73;101280.16;5071524;28;20533;-67
2023/09/28 02:07:49;;;;;;;5.00;3.80;;;;;;;24.04;48.74;101277.69;5060718;28;20125;-67
2023/09/28 02:10:15;;;;;;;4.88;3.85;;;;;;;24.05;48.77;101285.47;5074735;28;20501;-67
2023/09/28 02:12:43;;;;;;;5.28;4.10;;;;;;;24.09;48.57;101284.09;5025977;28;20042;-67
2023/09/28 02:15:10;;;;;;;4.40;3.88;;;;;;;24.08;48.71;101286.94;5079062;28;20082;-67
2023/09/28 02:17:38;;;;;;;4.35;3.80;;;;;;;24.08;48.59;101289.63;5019170;28;20557;-67
2023/09/28 02:20:09;;;;;;;5.05;3.67;;;;;;;24.08;48.65;101281.63;5076113;28;20497;-67
2023/09/28 02:22:47;;;;;;;5.78;3.90;;;;;;;24.07;48.71;101275.50;5016203;28;20043;-68
2023/09/28 02:25:15;;;;;;;4.57;3.58;;;;;;;24.09;48.42;101285.94;5079829;28;20100;-67
2023/09/28 02:27:42;;;;;;;5.20;4.55;;;;;;;24.04;48.59;101280.34;5023727;28;20063;-66
2023/09/28 02:30:11;;;;;;;4.32;3.38;;;;;;;24.06;48.74;101283.66;5058966;28;20754;-68
2023/09/28 02:32:40;;;;;;;5.20;4.63;;;;;;;24.09;48.68;101285.94;5076561;28;20553;-67
2023/09/28 02:35:09;;;;;;;4.68;3.85;;;;;;;24.09;48.58;101283.28;5020958;28;20569;-67
2023/09/28 02:37:35;;;;;;;5.72;3.83;;;;;;;24.06;48.63;101281.84;5076985;28;20420;-67
2023/09/28 02:40:05;;;;;;;4.40;3.78;;;;;;;24.08;48.56;101286.94;5022128;28;20062;-67
2023/09/28 02:42:33;;;;;;;4.90;4.13;;;;;;;24.09;48.50;101293.91;5076981;28;20040;-67
2023/09/28 02:44:59;;;;;;;5.47;4.05;;;;;;;24.08;48.64;101298.41;5027829;28;20118;-67
2023/09/28 02:47:25;;;;;;;4.30;3.90;;;;;;;24.03;48.66;101290.19;5074557;28;20040;-67
2023/09/28 02:49:51;;;;;;;4.65;3.70;;;;;;;24.05;48.64;101282.81;5046474;28;20036;-67
2023/09/28 02:52:18;;;;;;;4.15;3.58;;;;;;;24.07;48.49;101285.31;5076247;28;20119;-67
2023/09/28 02:54:44;;;;;;;5.20;4.20;;;;;;;24.07;48.64;101296.78;5027498;28;20409;-67
2023/09/28 02:57:10;;;;;;;4.43;3.70;;;;;;;24.08;48.65;101292.28;5075393;28;20101;-67
2023/09/28 02:59:36;;;;;;;5.40;3.95;;;;;;;24.08;48.48;101297.59;5027424;28;20031;-67
2023/09/28 03:02:05;;;;;;;4.63;3.80;;;;;;;24.09;48.64;101307.22;5075249;28;20090;-67
2023/09/28 03:04:31;;;;;;;5.55;4.13;;;;;;;24.09;48.56;101309.88;5024423;28;20048;-68
2023/09/28 03:06:58;;;;;;;5.97;4.13;;;;;;;24.09;48.55;101305.38;5061919;28;20059;-68
2023/09/28 03:09:26;;;;;;;5.53;4.10;;;;;;;24.07;48.48;101318.06;5075918;28;20040;-68
2023/09/28 03:11:52;;;;;;;5.00;3.80;;;;;;;24.09;48.52;101317.88;5023854;28;20039;-68
2023/09/28 03:14:19;;;;;;;4.68;4.18;;;;;;;24.08;48.52;101316.22;5091076;28;20032;-68
2023/09/28 03:16:44;;;;;;;4.00;3.60;;;;;;;24.10;48.53;101340.78;5021186;28;20106;-68
2023/09/28 03:19:10;;;;;;;4.35;3.63;;;;;;;24.09;48.14;101331.16;5088450;28;20028;-68
2023/09/28 03:21:36;;;;;;;5.25;3.80;;;;;;;24.09;48.40;101336.47;5019877;28;20501;-67
2023/09/28 03:24:01;;;;;;;5.13;4.00;;;;;;;24.07;48.56;101331.38;5076460;28;20050;-67
2023/09/28 03:26:31;;;;;;;4.43;3.85;;;;;;;24.10;48.36;101340.78;5021791;28;20089;-67
2023/09/28 03:28:57;;;;;;;4.13;3.30;;;;;;;24.07;48.43;101338.53;5058966;28;20047;-67
2023/09/28 03:31:27;;;;;;;4.95;3.92;;;;;;;24.08;48.69;101343.66;5076094;28;20058;-67
2023/09/28 03:33:53;;;;;;;;;;;;;;;24.09;48.54;101341.81;5025667;28;20052;-67
2023/09/28 03:36:19;;;;;;;4.68;3.83;;;;;;;24.07;48.49;101344.66;5076453;28;19916;-67
2023/09/28 03:38:44;;;;;;;3.88;3.38;;;;;;;24.08;48.50;101340.97;5017675;28;20047;-67
2023/09/28 03:41:09;;;;;;;5.70;4.15;;;;;;;24.09;48.41;101337.31;5078696;28;20036;-67
2023/09/28 03:43:35;;;;;;;4.90;3.90;;;;;;;24.08;48.55;101340.97;5025500;28;20078;-67
2023/09/28 03:46:01;;;;;;;4.20;3.80;;;;;;;24.11;48.51;101337.09;5062320;28;20048;-67
2023/09/28 03:48:27;;;;;;;5.47;4.38;;;;;;;24.06;48.48;101324.41;5077250;28;20052;-67
2023/09/28 03:50:53;;;;;;;5.53;4.10;;;;;;;24.09;48.34;101337.31;5043059;28;20109;-67
2023/09/28 03:53:18;;;;;;;4.57;3.70;;;;;;;24.09;48.41;101333.81;5059384;28;20791;-67
2023/09/28 03:55:47;;;;;;;4.82;4.10;;;;;;;24.08;48.40;101338.31;5077741;28;20039;-67
2023/09/28 03:58:17;;;;;;;4.30;3.60;;;;;;;24.09;48.56;101336.47;5033008;28;20025;-67
2023/09/28 04:00:43;;;;;;;4.38;3.92;;;;;;;24.10;48.28;101343.44;5052653;28;21479;-67
2023/09/28 04:03:11;;;;;;;5.20;4.10;;;;;;;24.06;48.38;101350.19;5049048;28;20036;-68
2023/09/28 04:05:38;;;;;;;5.15;3.92;;;;;;;24.03;48.54;101339.91;5058140;28;20040;-67
2023/09/28 04:08:05;;;;;;;4.25;3.45;;;;;;;24.07;48.50;101346.50;5075890;28;20109;-67
2023/09/28 04:10:33;;;;;;;4.05;3.53;;;;;;;24.05;48.51;101338.69;5025748;28;20040;-67
2023/09/28 04:13:01;;;;;;;5.95;3.85;;;;;;;24.08;48.40;101340.97;5070854;28;20177;-67
2023/09/28 04:15:26;;;;;;;4.22;3.75;;;;;;;24.05;48.60;101349.34;5023694;28;20413;-67
2023/09/28 04:17:52;;;;;;;4.20;3.80;;;;;;;24.05;48.40;101336.03;5077561;28;20036;-67
2023/09/28 04:20:17;;;;;;;4.68;4.00;;;;;;;24.07;48.50;101347.31;5025941;28;20039;-67
2023/09/28 04:22:43;;;;;;;5.68;4.10;;;;;;;24.07;48.63;101354.47;5074190;28;20497;-67
2023/09/28 04:25:10;;;;;;;4.40;3.63;;;;;;;24.08;48.46;101361.44;5021121;28;20043;-67
2023/09/28 04:27:35;;;;;;;5.03;3.75;;;;;;;24.07;48.52;101357.97;5060690;28;20145;-67
2023/09/28 04:30:01;;;;;;;5.65;3.95;;;;;;;24.10;48.45;101364.72;5070866;28;20044;-67
2023/09/28 04:32:27;;;;;;;4.10;3.50;;;;;;;24.09;48.42;101360.44;5021339;28;21112;-67
2023/09/28 04:34:52;;;;;;;4.20;3.80;;;;;;;24.09;48.31;101363.91;5073324;28;20608;-67
2023/09/28 04:37:19;;;;;;;4.68;4.03;;;;;;;24.04;48.49;101358.34;5018830;28;20040;-67
2023/09/28 04:39:44;;;;;;;4.32;3.47;;;;;;;24.06;48.79;101366.97;5070584;28;20150;-66
2023/09/28 04:42:10;;;;;;;4.57;4.10;;;;;;;24.10;48.40;101368.22;5016656;28;20036;-66
2023/09/28 04:44:35;;;;;;;3.85;3.45;;;;;;;24.09;48.41;101360.44;5073894;28;20048;-66
2023/09/28 04:47:02;;;;;;;4.03;3.63;;;;;;;24.08;48.49;101370.25;5026363;28;20059;-66
2023/09/28 04:49:28;;;;;;;5.32;3.95;;;;;;;24.08;48.49;101361.44;5070644;28;20596;-66
2023/09/28 04:51:53;;;;;;;4.63;3.92;;;;;;;24.08;48.42;101369.44;5010009;28;20693;-67
2023/09/28 04:54:20;;;;;;;4.63;3.83;;;;;;;24.08;48.50;101374.75;5074580;28;20032;-66
2023/09/28 04:56:45;;;;;;;4.63;3.50;;;;;;;24.06;48.49;101377.59;5071849;28;20093;-67
2023/09/28 04:59:11;;;;;;;5.75;4.03;;;;;;;24.08;48.52;101382.72;5018120;28;20334;-67
2023/09/28 05:01:37;;;;;;;5.90;3.60;;;;;;;24.07;48.48;101387.22;5079519;28;20713;-67
2023/09/28 05:04:02;;;;;;;4.30;3.63;;;;;;;23.99;48.64;101379.38;5031112;28;20118;-67
2023/09/28 05:06:28;;;;;;;4.78;3.92;;;;;;;24.08;48.35;101401.34;5077046;28;20051;-67
2023/09/28 05:08:55;;;;;;;4.35;3.85;;;;;;;24.05;48.36;101397.22;5020062;28;20039;-67
2023/09/28 05:11:20;;;;;;;5.05;3.70;;;;;;;24.08;48.44;101394.19;5075751;28;20052;-67
2023/09/28 05:13:46;;;;;;;4.82;3.85;;;;;;;24.08;48.46;101401.34;5023854;28;21465;-66
2023/09/28 05:16:12;;;;;;;4.93;3.90;;;;;;;24.10;48.27;101394.00;5076308;28;20055;-66
2023/09/28 05:18:38;;;;;;;4.28;3.83;;;;;;;24.06;48.26;101404.22;5063181;28;20047;-68
2023/09/28 05:21:03;;;;;;;6.00;4.10;;;;;;;24.06;48.32;101398.88;5082051;28;20039;-67
2023/09/28 05:23:29;;;;;;;4.80;3.83;;;;;;;24.07;48.33;101399.72;5019888;28;20391;-67
2023/09/28 05:25:55;;;;;;;5.63;4.03;;;;;;;24.08;48.44;101404.84;5075031;28;20041;-67
2023/09/28 05:28:20;;;;;;;4.13;3.47;;;;;;;24.07;48.37;101410.34;5028880;28;20048;-67
2023/09/28 05:30:46;;;;;;;5.40;3.70;;;;;;;24.05;48.45;101410.53;5072664;28;20059;-67
2023/09/28 05:33:12;;;;;;;4.05;3.40;;;;;;;24.07;48.42;101421.81;5026790;28;20186;-67
2023/09/28 05:35:37;;;;;;;5.68;4.10;;;;;;;24.08;48.25;101420.81;5071427;28;20036;-67
2023/09/28 05:38:03;;;;;;;5.72;4.15;;;;;;;24.03;48.34;101417.88;5040652;28;20517;-67
2023/09/28 05:40:29;;;;;;;4.40;3.78;;;;;;;24.06;48.35;101432.66;5078092;28;20039;-67
2023/09/28 05:42:54;;;;;;;4.70;4.00;;;;;;;24.03;48.39;101435.69;5015223;28;21213;-67
2023/09/28 05:45:20;;;;;;;4.90;3.85;;;;;;;24.06;48.40;101448.63;5076941;28;20039;-67
2023/09/28 05:47:47;;;;;;;4.82;3.90;;;;;;;24.10;48.26;101460.53;5076398;28;20028;-68
2023/09/28 05:50:12;;;;;;;5.28;4.05;;;;;;;24.09;48.12;101459.69;5023025;28;20101;-67
2023/09/28 05:52:39;;;;;;;4.78;3.78;;;;;;;24.08;48.30;101465.22;5071016;28;20542;-67
2023/09/28 05:55:05;;;;;;;4.65;3.70;;;;;;;24.06;48.37;101467.25;5042695;28;20037;-67
2023/09/28 05:57:31;;;;;;;5.03;3.97;;;;;;;24.07;48.47;101466.22;5078621;28;20395;-67
2023/09/28 05:59:56;;;;;;;4.15;3.75;;;;;;;24.08;48.30;101473.19;5025354;28;20043;-67
2023/09/28 06:02:22;;;;;;;4.55;3.72;;;;;;;24.06;48.48;101477.88;5079158;28;20044;-68
2023/09/28 06:04:47;;;;;;;4.40;3.55;;;;;;;24.06;48.34;101480.56;5032146;28;20597;-68
2023/09/28 06:07:13;;;;;;;4.88;3.83;;;;;;;24.06;48.25;101483.22;5076119;28;20044;-67
2023/09/28 06:09:40;;;;;;;4.18;3.50;;;;;;;24.07;48.37;101485.69;5066980;28;20044;-67
2023/09/28 06:12:06;;;;;;;5.68;3.60;;;;;;;24.09;48.31;101504.09;5080071;28;20089;-67
2023/09/28 06:14:32;;;;;;;4.55;3.67;;;;;;;24.08;48.34;101491.81;5032440;28;20777;-67
2023/09/28 06:17:00;;;;;;;4.50;3.72;;;;;;;24.06;48.41;101494.66;5078094;28;20074;-68
2023/09/28 06:19:26;;;;;;;5.30;3.78;;;;;;;24.06;48.27;101489.34;5057284;27;20091;-67
2023/09/28 06:21:52;;;;;;;5.78;3.83;;;;;;;24.09;48.35;101490.81;5075781;28;20020;-67
2023/09/28 06:24:18;;;;;;;6.95;4.22;;;;;;;24.04;48.25;101501.19;5023605;28;20485;-67
2023/09/28 06:26:43;;;;;;;3.78;3.35;;;;;;;24.02;48.37;101501.38;5080090;28;20039;-67
2023/09/28 06:29:09;;;;;;;5.07;3.55;;;;;;;24.04;48.43;101509.97;5031941;28;20454;-67
2023/09/28 06:31:35;;;;;;;3.80;3.25;;;;;;;24.04;48.38;101507.31;5077711;28;20048;-67
2023/09/28 06:34:01;;;;;;;4.30;3.60;;;;;;;24.06;48.36;101509.81;5067932;28;20055;-68
2023/09/28 06:36:27;;;;;;;4.78;3.88;;;;;;;24.05;48.43;101522.25;5078235;28;20032;-67
2023/09/28 06:38:55;;;;;;;7.43;3.65;;;;;;;24.04;48.34;101523.28;5026618;28;22168;-68
2023/09/28 06:41:21;;;;;;;6.38;4.10;;;;;;;24.03;48.42;101532.28;5073752;28;20032;-67
2023/09/28 06:43:48;;;;;;;4.30;3.53;;;;;;;24.06;48.28;101521.28;5023222;28;20098;-67
2023/09/28 06:46:14;;;;;;;5.25;3.70;;;;;;;24.04;48.36;101527.78;5079189;28;20123;-67
2023/09/28 06:48:39;;;;;;;5.55;3.67;;;;;;;24.05;48.41;101524.94;5027107;28;20040;-67
2023/09/28 06:51:05;;;;;;;4.95;3.30;;;;;;;24.05;48.26;101526.75;5058996;28;20036;-67
2023/09/28 06:53:32;;;;;;;4.40;3.25;;;;;;;24.07;48.55;101516.78;5075903;28;20584;-68
2023/09/28 06:55:59;;;;;;;5.00;3.92;;;;;;;24.05;48.36;101508.97;5056567;28;20124;-67
2023/09/28 06:58:25;;;;;;;4.72;3.50;;;;;;;24.04;48.35;101503.84;5053793;28;20051;-67
2023/09/28 07:00:52;;;;;;;3.92;3.38;;;;;;;24.03;48.47;101516.31;5046740;28;20032;-67
2023/09/28 07:03:19;;;;;;;5.05;3.60;;;;;;;24.05;48.53;101521.44;5052084;28;20047;-67
2023/09/28 07:05:45;;;;;;;4.22;3.70;;;;;;;24.06;48.18;101528.44;5078188;28;20470;-67
2023/09/28 07:08:12;;;;;;;4.45;3.50;;;;;;;24.07;48.37;101546.03;5023715;28;20035;-69
2023/09/28 07:10:38;;;;;;;5.60;3.70;;;;;;;24.03;48.46;101556.22;5091462;28;20054;-66
2023/09/28 07:13:07;;;;;;;4.28;3.47;;;;;;;24.06;48.23;101555.88;5030244;28;20047;-66
2023/09/28 07:15:34;;;;;;;5.45;3.38;;;;;;;24.07;48.47;101546.88;5062797;28;20044;-67
2023/09/28 07:18:00;;;;;;;3.78;3.42;;;;;;;24.09;48.48;101552.00;5074137;28;20036;-66
2023/09/28 07:20:27;;;;;;;5.00;3.78;;;;;;;24.04;48.20;101559.69;5024661;28;20036;-66
2023/09/28 07:22:53;;;;;;;5.47;3.80;;;;;;;24.04;48.34;101555.22;5072208;28;20032;-66
2023/09/28 07:25:19;;;;;;;4.22;3.53;;;;;;;24.06;48.23;101558.53;5025451;28;20050;-66
2023/09/28 07:27:47;;;;;;;4.45;3.53;;;;;;;24.07;48.27;101560.16;5073679;28;20056;-66
2023/09/28 07:30:14;;;;;;;5.28;3.42;;;;;;;24.10;48.34;101567.78;5027510;28;20432;-66
2023/09/28 07:32:40;;;;;;;4.90;3.33;;;;;;;24.09;48.23;101576.75;5076367;28;20166;-66
2023/09/28 07:35:06;;;;;;;7.63;3.38;;;;;;;24.11;48.34;101573.91;5024319;28;20054;-66
2023/09/28 07:37:35;;;;;;;4.78;3.47;;;;;;;24.15;48.32;101587.66;5079098;28;20032;-66
2023/09/28 07:40:01;;;;;;;4.75;3.58;;;;;;;24.07;48.35;101578.78;5062719;28;20507;-66
2023/09/28 07:42:27;;;;;;;5.35;3.40;;;;;;;24.13;48.40;101590.50;5075972;28;20051;-65
2023/09/28 07:44:52;;;;;;;5.18;3.63;;;;;;;24.18;48.23;101600.56;5026890;28;20052;-65
2023/09/28 07:47:19;;;;;;;6.85;3.38;;;;;;;24.19;48.26;101594.25;5080655;28;20577;-65
2023/09/28 07:49:47;;;;;;;5.18;3.28;;;;;;;24.22;48.15;101597.34;5022495;28;20041;-65
2023/09/28 07:52:13;;;;;;;5.57;3.33;;;;;;;24.18;48.24;101580.13;5077940;28;20044;-65
2023/09/28 07:54:39;;;;;;;4.32;3.10;;;;;;;24.25;48.17;101585.50;5006605;28;20035;-66
2023/09/28 07:57:07;;;;;;;5.38;3.50;;;;;;;24.24;48.29;101591.84;5077394;28;20063;-66
2023/09/28 07:59:33;;;;;;;7.25;3.45;;;;;;;24.23;48.24;101592.84;5025950;28;20131;-66
2023/09/28 08:01:59;;;;;;;6.55;3.30;;;;;;;24.27;48.28;101588.81;5079878;28;20500;-66
2023/09/28 08:04:25;;;;;;;5.45;3.30;;;;;;;24.28;48.15;101588.59;5060096;28;20040;-68
2023/09/28 08:06:51;;;;;;;4.28;3.17;;;;;;;24.26;48.30;101595.97;5072697;28;20040;-67
2023/09/28 08:09:19;;;;;;;4.97;3.10;;;;;;;24.30;48.25;101599.09;5028083;28;20051;-67
2023/09/28 08:11:46;;;;;;;5.50;3.33;;;;;;;24.33;48.07;101598.72;5074095;28;20721;-67
2023/09/28 08:14:15;;;;;;;4.60;3.55;;;;;;;24.32;48.18;101610.38;5020693;28;20127;-67
2023/09/28 08:16:42;;;;;;;3.97;3.22;;;;;;;24.31;48.32;101606.06;5081960;28;20064;-68
2023/09/28 08:19:08;;;;;;;5.20;3.47;;;;;;;24.31;48.16;101600.75;5019793;28;21703;-68
2023/09/28 08:21:37;;;;;;;5.75;3.35;;;;;;;24.35;48.23;101609.97;5079816;28;20246;-68
2023/09/28 08:24:03;;;;;;;4.05;3.20;;;;;;;24.29;48.24;101602.78;5041395;28;20039;-68
2023/09/28 08:26:30;;;;;;;4.20;3.35;;;;;;;24.35;48.16;101612.66;5066364;28;20108;-66
2023/09/28 08:28:57;;;;;;;5.53;3.67;;;;;;;24.34;48.29;101603.84;5062034;28;21297;-67
2023/09/28 08:31:23;;;;;;;5.00;2.92;;;;;;;24.34;48.38;101603.00;5078304;28;20509;-69
2023/09/28 08:33:52;;;;;;;5.13;3.35;;;;;;;24.36;48.20;101609.78;5070642;28;20060;-67
2023/09/28 08:36:18;;;;;;;4.30;3.25;;;;;;;24.40;48.15;101602.25;5036879;28;20105;-67
2023/09/28 08:38:44;;;;;;;5.25;3.22;;;;;;;24.37;48.21;101606.13;5050717;28;20048;-67
2023/09/28 08:41:11;;;;;;;4.47;3.25;;;;;;;24.42;47.99;101613.56;5053466;28;20118;-67
2023/09/28 08:43:43;;;;;;;4.45;3.30;;;;;;;24.38;48.11;101613.09;5076740;28;20043;-67
2023/09/28 08:46:14;;;;;;;6.13;3.40;;;;;;;24.42;48.20;101632.19;5018832;28;20654;-68
2023/09/28 08:48:45;;;;;;;5.03;3.15;;;;;;;24.39;48.14;101635.19;5061589;28;20587;-68
2023/09/28 08:51:11;;;;;;;5.53;3.60;;;;;;;24.44;48.12;101655.94;5084411;28;20044;-67
2023/09/28 08:53:41;;;;;;;4.30;3.00;;;;;;;24.44;48.23;101655.94;5025267;28;20545;-67
2023/09/28 08:56:07;;;;;;;6.30;3.10;;;;;;;24.43;48.03;101651.66;5076138;28;20568;-67
2023/09/28 08:58:37;;;;;;;5.90;2.83;;;;;;;24.42;48.33;101653.47;5032207;28;20032;-67
2023/09/28 09:01:03;;;;;;;7.30;3.08;;;;;;;24.43;48.13;101652.47;5072910;28;20450;-68
2023/09/28 09:03:31;;;;;;;6.32;3.35;;;;;;;24.44;48.18;101671.94;5025267;28;20039;-67
2023/09/28 09:05:57;;;;;;;4.30;2.90;;;;;;;24.46;48.13;101664.56;5074296;28;20032;-67
2023/09/28 09:08:24;;;;;;;5.88;3.42;;;;;;;24.44;48.09;101666.59;5006920;28;20052;-67
2023/09/28 09:10:51;;;;;;;5.57;3.40;;;;;;;24.47;48.00;101655.56;5075987;28;20661;-68
2023/09/28 09:13:18;;;;;;;7.03;4.03;;;;;;;24.47;48.02;101643.06;5027717;28;21032;-67
2023/09/28 09:15:44;;;;;;;6.80;3.35;;;;;;;24.48;47.99;101649.22;5078495;28;20051;-67
2023/09/28 09:18:19;;;;;;;5.68;3.00;;;;;;;24.50;48.01;101645.34;5029049;28;20316;-68
2023/09/28 09:20:46;;;;;;;7.32;3.45;;;;;;;24.50;47.96;101658.66;5079098;28;20029;-67
2023/09/28 09:23:14;;;;;;;7.20;3.30;;;;;;;24.50;47.99;101673.81;5026474;28;22294;-68
2023/09/28 09:25:40;;;;;;;7.65;3.10;;;;;;;24.51;48.07;101678.94;5084368;28;20043;-68
2023/09/28 09:28:06;;;;;;;9.65;3.35;;;;;;;24.49;48.18;101680.97;5033454;28;20653;-66
2023/09/28 09:30:35;;;;;;;6.50;3.08;;;;;;;24.52;47.85;101685.09;5072863;28;20455;-67
2023/09/28 09:33:01;;;;;;;4.28;2.70;;;;;;;24.52;47.96;101687.75;5066293;28;20040;-69
2023/09/28 09:35:28;;;;;;;5.15;2.92;;;;;;;24.51;48.06;101681.63;5075295;28;20037;-69
2023/09/28 09:37:55;;;;;;;6.38;2.88;;;;;;;24.46;48.03;101676.03;5030642;28;20520;-69
2023/09/28 09:40:21;;;;;;;8.88;3.17;;;;;;;24.50;47.90;101681.81;5074955;28;20045;-69
2023/09/28 09:42:47;;;;;;;6.05;2.80;;;;;;;24.50;47.98;101690.63;5029759;28;20498;-68
2023/09/28 09:45:12;;;;;;;7.60;3.00;;;;;;;24.52;47.85;101685.91;5077593;28;20066;-68
2023/09/28 09:47:45;;;;;;;8.13;2.70;;;;;;;24.52;47.91;101695.75;5030420;28;20036;-70
2023/09/28 09:50:13;;;;;;;7.38;3.08;;;;;;;24.53;47.70;101681.41;5079886;28;20086;-70
2023/09/28 09:52:42;;;;;;;6.82;2.42;;;;;;;24.54;47.72;101670.56;5026439;28;20521;-71
2023/09/28 09:55:08;;;;;;;5.30;2.83;;;;;;;24.54;47.93;101683.06;5082696;28;20036;-69
2023/09/28 09:57:37;;;;;;;6.38;2.63;;;;;;;24.54;47.76;101686.56;5064958;28;20082;-70
2023/09/28 10:00:07;;;;;;;6.80;2.97;;;;;;;24.55;47.75;101682.88;5076171;28;20157;-70
2023/09/28 10:02:40;;;;;;;5.50;2.95;;;;;;;24.55;47.78;101695.38;5033612;28;20135;-70
2023/09/28 10:05:12;;;;;;;7.60;2.92;;;;;;;24.55;48.11;101698.03;5079442;28;20024;-69
2023/09/28 10:07:39;;;;;;;8.45;3.20;;;;;;;24.54;47.84;101696.38;5029128;28;20123;-69
2023/09/28 10:10:05;;;;;;;8.02;2.55;;;;;;;24.55;47.88;101685.53;5075234;28;20049;-70
2023/09/28 10:12:30;;;;;;;8.73;2.70;;;;;;;24.54;47.89;101694.53;5033397;28;20551;-68
2023/09/28 10:15:00;;;;;;;6.03;3.30;;;;;;;24.52;47.68;101696.56;5063683;28;20516;-68
2023/09/28 10:17:26;;;;;;;5.38;2.35;;;;;;;24.58;47.64;101694.97;5079747;28;20257;-68
2023/09/28 10:19:57;;;;;;;5.55;2.40;;;;;;;24.57;47.71;101696.81;5040354;28;20039;-68
2023/09/28 10:22:23;;;;;;;7.88;3.00;;;;;;;24.58;47.80;101695.81;5081338;28;20367;-68
2023/09/28 10:24:49;;;;;;;6.78;2.97;;;;;;;24.57;47.69;101699.47;5078074;28;20038;-69
2023/09/28 10:27:15;;;;;;;5.30;2.53;;;;;;;24.58;48.00;101697.63;5031724;28;20052;-68
2023/09/28 10:29:41;;;;;;;6.55;2.83;;;;;;;24.57;47.64;101699.47;5067990;28;20036;-68
2023/09/28 10:32:25;;;;;;;5.95;3.03;;;;;;;24.56;47.78;101697.84;5040709;28;20422;-68
2023/09/28 10:35:20;;;;;;;8.57;3.20;;;;;;;24.58;47.71;101700.31;5068048;28;20047;-68
2023/09/28 10:38:15;;;;;;;4.68;2.38;;;;;;;24.51;47.91;101686.13;5074543;28;20040;-68
2023/09/28 10:40:42;;;;;;;7.32;3.30;;;;;;;24.58;47.63;101695.81;5072597;28;20493;-68
2023/09/28 10:43:09;;;;;;;9.30;3.28;;;;;;;24.57;47.74;101704.81;5025021;28;20411;-67
2023/09/28 10:45:37;;;;;;;6.90;2.72;;;;;;;24.58;47.67;101706.44;5077638;28;20032;-68
2023/09/28 10:48:07;;;;;;;9.68;3.22;;;;;;;24.52;47.81;101712.53;5038114;28;20064;-69
2023/09/28 10:50:38;;;;;;;3.15;2.22;;;;;;;24.55;47.72;101717.50;5057268;28;20158;-67
2023/09/28 10:53:03;;;;;;;7.93;2.75;;;;;;;24.52;47.85;101714.38;5078159;28;20032;-67
2023/09/28 10:55:29;;;;;;;5.57;2.67;;;;;;;24.54;47.83;101726.50;5027582;28;20664;-68
2023/09/28 10:57:54;;;;;;;5.18;2.47;;;;;;;24.49;47.87;101718.25;5076297;28;20040;-68
2023/09/28 11:00:23;;;;;;;5.30;2.45;;;;;;;24.47;47.68;101712.31;5029771;28;20043;-68
2023/09/28 11:02:48;;;;;;;5.97;2.40;;;;;;;24.53;47.83;101714.19;5074206;28;20085;-68
2023/09/28 11:05:14;;;;;;;6.40;2.78;;;;;;;24.52;47.87;101711.72;5029164;28;21526;-68
2023/09/28 11:07:40;;;;;;;4.22;3.03;;;;;;;24.54;47.60;101715.84;5077832;28;20478;-68
2023/09/28 11:10:08;;;;;;;6.20;2.80;;;;;;;24.56;47.76;101715.66;5063537;28;20097;-67
2023/09/28 11:12:34;;;;;;;6.03;2.75;;;;;;;24.56;47.65;101727.13;5075247;28;20054;-68
2023/09/28 11:15:01;;;;;;;7.05;2.90;;;;;;;24.53;47.68;101729.34;5029223;28;20959;-68
2023/09/28 11:17:27;;;;;;;7.97;2.75;;;;;;;24.51;47.73;101726.88;5080983;28;20096;-68
2023/09/28 11:19:56;;;;;;;9.30;3.35;;;;;;;24.54;47.72;101731.00;5058589;28;20436;-67
2023/09/28 11:22:21;;;;;;;7.00;2.60;;;;;;;24.52;47.71;101735.69;5058576;28;20115;-67
2023/09/28 11:24:47;;;;;;;7.13;2.80;;;;;;;24.53;47.67;101730.16;5077869;28;20046;-67